createdAt,value
2023-12-09T00:00:21.253Z,10.30
2023-12-09T00:02:47.645Z,10.67
2023-12-09T00:05:14.168Z,10.44
2023-12-09T00:07:40.566Z,9.95
2023-12-09T00:10:07.387Z,10.05
2023-12-09T00:12:34.024Z,10.26
2023-12-09T00:15:00.521Z,10.16
2023-12-09T00:17:27.298Z,10.45
2023-12-09T00:19:53.773Z,9.85
2023-12-09T00:22:20.192Z,10.50
2023-12-09T00:24:46.608Z,10.04
2023-12-09T00:27:13.016Z,10.15
2023-12-09T00:29:39.426Z,10.45
2023-12-09T00:32:06.244Z,10.55
2023-12-09T00:34:32.774Z,10.35
2023-12-09T00:36:59.137Z,10.54
2023-12-09T00:39:25.557Z,10.43
2023-12-09T00:41:51.972Z,10.11
2023-12-09T00:44:21.978Z,10.09
2023-12-09T00:46:48.373Z,10.44
2023-12-09T00:49:15.459Z,10.57
2023-12-09T00:51:41.868Z,10.31
2023-12-09T00:54:08.272Z,10.50
2023-12-09T00:56:35.630Z,10.41
2023-12-09T00:59:03.359Z,10.27
2023-12-09T01:01:29.784Z,10.42
2023-12-09T01:03:56.286Z,10.59
2023-12-09T01:06:22.770Z,10.45
2023-12-09T01:08:51.794Z,10.46
2023-12-09T01:11:18.344Z,10.54
2023-12-09T01:13:44.773Z,10.54
2023-12-09T01:16:11.570Z,10.38
2023-12-09T01:18:38.046Z,10.30
2023-12-09T01:21:04.885Z,10.45
2023-12-09T01:23:31.609Z,10.60
2023-12-09T01:25:57.975Z,10.41
2023-12-09T01:28:24.349Z,10.47
2023-12-09T01:30:50.716Z,9.98
2023-12-09T01:33:17.237Z,10.01
2023-12-09T01:35:43.713Z,10.32
2023-12-09T01:38:10.118Z,10.08
2023-12-09T01:40:36.818Z,10.08
2023-12-09T01:43:03.209Z,10.23
2023-12-09T01:45:29.619Z,10.38
2023-12-09T01:47:56.208Z,10.44
2023-12-09T01:50:22.777Z,10.51
2023-12-09T01:52:49.262Z,9.98
2023-12-09T01:55:16.394Z,10.23
2023-12-09T01:57:43.383Z,10.43
2023-12-09T02:00:12.183Z,10.23
2023-12-09T02:02:38.735Z,10.27
2023-12-09T02:05:06.224Z,10.32
2023-12-09T02:07:32.739Z,10.46
2023-12-09T02:09:59.297Z,10.46
2023-12-09T02:12:36.364Z,10.38
2023-12-09T02:15:24.838Z,10.21
2023-12-09T02:17:55.158Z,10.35
2023-12-09T02:20:22.082Z,10.15
2023-12-09T02:22:48.525Z,10.20
2023-12-09T02:25:15.018Z,10.39
2023-12-09T02:27:50.616Z,10.27
2023-12-09T02:30:26.552Z,10.39
2023-12-09T02:32:56.497Z,10.11
2023-12-09T02:35:25.262Z,10.37
2023-12-09T02:37:53.225Z,10.41
2023-12-09T02:40:20.318Z,10.04
2023-12-09T02:42:48.001Z,10.10
2023-12-09T02:45:14.437Z,10.16
2023-12-09T02:47:40.848Z,10.21
2023-12-09T02:50:07.500Z,9.85
2023-12-09T02:52:33.923Z,10.39
2023-12-09T02:55:00.358Z,10.21
2023-12-09T02:57:26.855Z,9.91
2023-12-09T02:59:53.324Z,10.23
2023-12-09T03:02:19.800Z,9.72
2023-12-09T03:04:46.212Z,10.16
2023-12-09T03:07:12.764Z,10.07
2023-12-09T03:09:39.167Z,10.12
2023-12-09T03:12:06.045Z,9.89
2023-12-09T03:14:32.503Z,9.92
2023-12-09T03:16:58.871Z,10.10
2023-12-09T03:19:25.403Z,10.04
2023-12-09T03:21:51.815Z,9.94
2023-12-09T03:24:18.292Z,9.49
2023-12-09T03:26:44.670Z,10.21
2023-12-09T03:29:11.051Z,10.17
2023-12-09T03:31:41.171Z,9.92
2023-12-09T03:34:07.640Z,10.14
2023-12-09T03:36:35.999Z,10.06
2023-12-09T03:39:02.510Z,10.01
2023-12-09T03:41:28.919Z,9.88
2023-12-09T03:43:55.279Z,10.02
2023-12-09T03:46:21.704Z,9.86
2023-12-09T03:48:48.296Z,9.96
2023-12-09T03:51:14.861Z,9.92
2023-12-09T03:53:44.753Z,9.94
2023-12-09T03:56:14.582Z,9.71
2023-12-09T03:58:41.332Z,9.74
2023-12-09T04:01:08.055Z,9.78
2023-12-09T04:03:34.661Z,9.77
2023-12-09T04:06:02.391Z,9.94
2023-12-09T04:08:28.864Z,9.84
2023-12-09T04:10:55.261Z,9.59
2023-12-09T04:13:21.826Z,9.95
2023-12-09T04:15:48.263Z,10.00
2023-12-09T04:18:14.952Z,10.11
2023-12-09T04:20:41.682Z,10.11
2023-12-09T04:23:08.163Z,9.89
2023-12-09T04:25:34.540Z,9.99
2023-12-09T04:28:01.023Z,9.76
2023-12-09T04:30:27.403Z,9.41
2023-12-09T04:32:53.956Z,9.73
2023-12-09T04:35:20.394Z,9.76
2023-12-09T04:37:46.811Z,9.96
2023-12-09T04:40:15.184Z,9.92
2023-12-09T04:42:42.974Z,9.95
2023-12-09T04:45:09.912Z,9.98
2023-12-09T04:47:37.992Z,10.11
2023-12-09T04:50:05.831Z,9.81
2023-12-09T04:52:32.208Z,9.98
2023-12-09T04:54:58.613Z,9.81
2023-12-09T04:57:25.330Z,9.72
2023-12-09T04:59:51.817Z,9.79
2023-12-09T05:02:21.589Z,9.89
2023-12-09T05:04:48.107Z,9.84
2023-12-09T05:07:15.405Z,9.90
2023-12-09T05:09:42.147Z,9.49
2023-12-09T05:12:08.707Z,9.97
2023-12-09T05:14:35.094Z,10.12
2023-12-09T05:17:01.968Z,10.05
2023-12-09T05:19:28.441Z,10.09
2023-12-09T05:21:54.985Z,10.11
2023-12-09T05:24:21.476Z,9.82
2023-12-09T05:26:48.046Z,10.02
2023-12-09T05:29:14.433Z,8.86
2023-12-09T05:31:41.852Z,10.14
2023-12-09T05:34:09.328Z,9.69
2023-12-09T05:36:37.858Z,10.15
2023-12-09T05:39:04.698Z,10.04
2023-12-09T05:41:31.120Z,9.96
2023-12-09T05:43:57.494Z,9.70
2023-12-09T05:46:23.878Z,9.70
2023-12-09T05:48:50.701Z,9.67
2023-12-09T05:51:17.326Z,9.64
2023-12-09T05:53:43.771Z,9.96
2023-12-09T05:56:11.170Z,9.50
2023-12-09T05:58:38.384Z,9.88
2023-12-09T06:01:04.953Z,9.77
2023-12-09T06:03:31.423Z,9.80
2023-12-09T06:05:58.877Z,9.49
2023-12-09T06:08:25.475Z,9.85
2023-12-09T06:10:52.437Z,9.77
2023-12-09T06:13:18.862Z,9.83
2023-12-09T06:15:46.933Z,9.62
2023-12-09T06:18:14.648Z,9.64
2023-12-09T06:20:41.176Z,9.62
2023-12-09T06:23:07.579Z,9.28
2023-12-09T06:25:33.951Z,9.26
2023-12-09T06:28:01.055Z,9.34
2023-12-09T06:30:27.478Z,9.09
2023-12-09T06:32:54.213Z,9.51
2023-12-09T06:35:20.720Z,9.53
2023-12-09T06:37:47.107Z,9.57
2023-12-09T06:40:13.667Z,9.37
2023-12-09T06:42:40.062Z,9.07
2023-12-09T06:45:07.096Z,9.59
2023-12-09T06:47:33.694Z,9.67
2023-12-09T06:50:00.212Z,9.42
2023-12-09T06:52:26.849Z,9.23
2023-12-09T06:54:53.538Z,9.25
2023-12-09T06:57:19.928Z,9.19
2023-12-09T06:59:46.305Z,9.11
2023-12-09T07:02:12.700Z,9.36
2023-12-09T07:04:39.524Z,9.50
2023-12-09T07:07:08.654Z,9.30
2023-12-09T07:09:37.869Z,9.34
2023-12-09T07:12:04.705Z,9.28
2023-12-09T07:14:31.151Z,8.89
2023-12-09T07:16:57.993Z,9.31
2023-12-09T07:19:24.441Z,9.08
2023-12-09T07:21:52.256Z,9.18
2023-12-09T07:24:19.000Z,9.08
2023-12-09T07:26:45.405Z,9.01
2023-12-09T07:29:11.785Z,8.23
2023-12-09T07:31:38.346Z,9.20
2023-12-09T07:34:04.822Z,9.11
2023-12-09T07:36:31.379Z,9.27
2023-12-09T07:38:57.792Z,9.03
2023-12-09T07:41:24.170Z,9.30
2023-12-09T07:43:50.606Z,9.27
2023-12-09T07:46:17.046Z,8.90
2023-12-09T07:48:43.561Z,9.05
2023-12-09T07:51:10.132Z,8.94
2023-12-09T07:53:36.547Z,9.13
2023-12-09T07:56:03.011Z,8.78
2023-12-09T07:58:29.427Z,8.71
2023-12-09T08:00:56.024Z,9.08
2023-12-09T08:03:22.519Z,9.25
2023-12-09T08:05:49.025Z,8.46
2023-12-09T08:08:15.537Z,9.37
2023-12-09T08:10:42.038Z,8.98
2023-12-09T08:13:09.808Z,9.09
2023-12-09T08:15:36.529Z,8.21
2023-12-09T08:18:04.760Z,8.00
2023-12-09T08:20:31.315Z,9.35
2023-12-09T08:22:57.799Z,8.82
2023-12-09T08:25:24.194Z,8.08
2023-12-09T08:27:50.617Z,9.28
2023-12-09T08:30:17.021Z,9.05
2023-12-09T08:32:44.695Z,9.09
2023-12-09T08:35:12.063Z,9.32
2023-12-09T08:37:39.785Z,8.59
2023-12-09T08:40:11.543Z,9.08
2023-12-09T08:42:41.989Z,9.30
2023-12-09T08:45:13.054Z,9.49
2023-12-09T08:47:42.853Z,9.41
2023-12-09T08:50:21.897Z,9.39
2023-12-09T08:52:51.986Z,9.50
2023-12-09T08:55:18.758Z,9.26
2023-12-09T08:57:46.269Z,9.23
2023-12-09T09:00:14.970Z,9.29
2023-12-09T09:02:41.528Z,9.58
2023-12-09T09:05:08.507Z,9.49
2023-12-09T09:07:39.951Z,9.58
2023-12-09T09:10:07.428Z,9.20
2023-12-09T09:12:34.065Z,9.08
2023-12-09T09:15:04.595Z,9.39
2023-12-09T09:17:33.482Z,9.45
2023-12-09T09:19:59.941Z,9.65
2023-12-09T09:22:26.985Z,8.81
2023-12-09T09:24:53.580Z,9.04
2023-12-09T09:27:20.076Z,9.38
2023-12-09T09:29:47.787Z,9.60
2023-12-09T09:32:14.334Z,9.61
2023-12-09T09:34:42.720Z,9.35
2023-12-09T09:37:09.788Z,9.69
2023-12-09T09:39:36.433Z,9.72
2023-12-09T09:42:30.843Z,9.56
2023-12-09T09:45:06.500Z,9.89
2023-12-09T09:47:38.103Z,9.86
2023-12-09T09:50:09.622Z,9.09
2023-12-09T09:52:38.050Z,9.49
2023-12-09T09:55:07.612Z,9.87
2023-12-09T09:57:35.624Z,10.06
2023-12-09T10:00:02.650Z,9.92
2023-12-09T10:02:29.508Z,9.87
2023-12-09T10:04:56.329Z,10.15
2023-12-09T10:07:23.664Z,9.36
2023-12-09T10:09:51.027Z,9.68
2023-12-09T10:12:17.544Z,10.54
2023-12-09T10:14:44.339Z,10.45
2023-12-09T10:17:11.023Z,10.69
2023-12-09T10:19:37.892Z,10.81
2023-12-09T10:22:14.282Z,10.78
2023-12-09T10:24:49.898Z,10.72
2023-12-09T10:27:19.947Z,10.44
2023-12-09T10:30:20.163Z,10.97
2023-12-09T10:32:48.264Z,10.91
2023-12-09T10:35:17.954Z,10.68
2023-12-09T10:38:19.700Z,10.99
2023-12-09T10:40:51.273Z,10.78
2023-12-09T10:43:18.473Z,10.77
2023-12-09T10:45:45.037Z,9.83
2023-12-09T10:48:11.659Z,10.03
2023-12-09T10:50:41.162Z,10.89
2023-12-09T10:53:07.819Z,10.79
2023-12-09T10:55:34.359Z,9.46
2023-12-09T10:58:01.476Z,10.50
2023-12-09T11:00:31.341Z,10.77
2023-12-09T11:03:02.831Z,10.59
2023-12-09T11:05:30.294Z,10.68
2023-12-09T11:07:58.737Z,9.83
2023-12-09T11:10:25.457Z,9.20
2023-12-09T11:12:51.927Z,10.78
2023-12-09T11:15:29.524Z,10.86
2023-12-09T11:17:56.839Z,10.80
2023-12-09T11:20:26.070Z,10.73
2023-12-09T11:22:55.311Z,11.01
2023-12-09T11:25:23.830Z,9.60
2023-12-09T11:27:52.167Z,10.13
2023-12-09T11:30:38.438Z,11.18
2023-12-09T11:33:06.118Z,11.13
2023-12-09T11:35:36.833Z,10.21
2023-12-09T11:38:06.402Z,10.58
2023-12-09T11:40:33.912Z,10.27
2023-12-09T11:43:02.448Z,10.98
2023-12-09T11:45:30.867Z,10.21
2023-12-09T11:48:20.077Z,10.49
2023-12-09T11:50:48.353Z,10.21
2023-12-09T11:53:16.026Z,10.79
2023-12-09T11:55:42.582Z,10.41
2023-12-09T11:58:14.361Z,10.66
2023-12-09T12:01:08.456Z,10.98
2023-12-09T12:03:35.512Z,10.82
2023-12-09T12:06:04.632Z,10.20
2023-12-09T12:08:31.235Z,9.72
2023-12-09T12:10:57.945Z,10.58
2023-12-09T12:13:27.110Z,10.20
2023-12-09T12:15:56.101Z,10.37
2023-12-09T12:18:25.805Z,10.07
2023-12-09T12:20:52.507Z,10.65
2023-12-09T12:23:29.970Z,9.45
2023-12-09T12:26:00.006Z,10.90
2023-12-09T12:28:27.146Z,10.78
2023-12-09T12:30:55.912Z,10.50
2023-12-09T12:33:23.722Z,9.71
2023-12-09T12:35:54.521Z,9.69
2023-12-09T12:38:25.023Z,9.86
2023-12-09T12:40:52.593Z,9.62
2023-12-09T12:43:20.221Z,10.80
2023-12-09T12:45:51.649Z,10.82
2023-12-09T12:48:19.096Z,10.82
2023-12-09T12:50:49.172Z,10.94
2023-12-09T12:53:18.765Z,10.28
2023-12-09T12:55:45.862Z,10.91
2023-12-09T12:58:12.573Z,10.16
2023-12-09T13:00:40.183Z,10.80
2023-12-09T13:03:08.305Z,10.32
2023-12-09T13:05:35.737Z,10.58
2023-12-09T13:08:02.421Z,9.90
2023-12-09T13:10:28.781Z,9.67
2023-12-09T13:12:56.041Z,10.73
2023-12-09T13:15:22.662Z,9.59
2023-12-09T13:17:51.007Z,10.08
2023-12-09T13:20:17.851Z,10.72
2023-12-09T13:22:46.825Z,8.70
2023-12-09T13:25:15.019Z,10.32
2023-12-09T13:27:43.047Z,10.36
2023-12-09T13:30:10.419Z,10.33
2023-12-09T13:32:42.257Z,10.49
2023-12-09T13:35:11.759Z,10.63
2023-12-09T13:37:39.425Z,9.53
2023-12-09T13:40:11.250Z,10.62
2023-12-09T13:42:38.834Z,10.28
2023-12-09T13:45:06.790Z,9.80
2023-12-09T13:47:33.425Z,8.82
2023-12-09T13:50:15.248Z,9.48
2023-12-09T13:52:42.544Z,9.98
2023-12-09T13:55:12.065Z,8.79
2023-12-09T13:57:40.931Z,9.52
2023-12-09T14:00:09.381Z,9.78
2023-12-09T14:02:41.431Z,8.78
2023-12-09T14:05:14.849Z,8.26
2023-12-09T14:07:45.600Z,8.53
2023-12-09T14:10:13.767Z,8.42
2023-12-09T14:12:45.044Z,8.68
2023-12-09T14:15:15.200Z,9.06
2023-12-09T14:17:43.559Z,8.34
2023-12-09T14:20:16.842Z,10.03
2023-12-09T14:22:47.023Z,9.09
2023-12-09T14:25:14.077Z,8.86
2023-12-09T14:27:43.825Z,9.89
2023-12-09T14:30:12.701Z,9.73
2023-12-09T14:32:39.851Z,9.37
2023-12-09T14:35:09.306Z,9.51
2023-12-09T14:37:36.913Z,9.13
2023-12-09T14:40:06.179Z,9.07
2023-12-09T14:42:33.075Z,8.14
2023-12-09T14:44:59.488Z,8.98
2023-12-09T14:47:28.271Z,9.04
2023-12-09T14:49:54.889Z,8.97
2023-12-09T14:52:22.752Z,9.10
2023-12-09T14:54:49.275Z,9.47
2023-12-09T14:57:16.614Z,8.22
2023-12-09T14:59:43.298Z,8.97
2023-12-09T15:02:18.978Z,8.25
2023-12-09T15:04:47.851Z,8.12
2023-12-09T15:07:14.405Z,8.43
2023-12-09T15:09:40.932Z,9.26
2023-12-09T15:12:07.495Z,9.03
2023-12-09T15:14:33.985Z,9.56
2023-12-09T15:17:00.602Z,9.25
2023-12-09T15:19:27.111Z,10.05
2023-12-09T15:21:53.771Z,9.91
2023-12-09T15:24:35.094Z,8.71
2023-12-09T15:27:06.914Z,8.99
2023-12-09T15:29:33.566Z,9.79
2023-12-09T15:32:00.150Z,8.36
2023-12-09T15:34:31.761Z,8.71
2023-12-09T15:36:58.928Z,8.66
2023-12-09T15:39:26.787Z,9.14
2023-12-09T15:41:53.491Z,9.89
2023-12-09T15:44:21.069Z,9.59
2023-12-09T15:46:51.744Z,7.95
2023-12-09T15:49:18.329Z,9.02
2023-12-09T15:51:47.537Z,8.70
2023-12-09T15:54:15.460Z,8.94
2023-12-09T15:56:45.077Z,9.13
2023-12-09T15:59:13.784Z,9.48
2023-12-09T16:01:40.595Z,8.74
2023-12-09T16:04:08.804Z,9.63
2023-12-09T16:06:35.396Z,9.06
2023-12-09T16:09:04.694Z,9.09
2023-12-09T16:11:32.567Z,8.92
2023-12-09T16:13:59.042Z,9.11
2023-12-09T16:16:25.747Z,9.47
2023-12-09T16:18:55.729Z,9.23
2023-12-09T16:21:23.319Z,9.86
2023-12-09T16:23:50.206Z,9.73
2023-12-09T16:26:17.074Z,9.41
2023-12-09T16:28:45.508Z,9.43
2023-12-09T16:31:14.988Z,10.08
2023-12-09T16:33:41.732Z,9.11
2023-12-09T16:36:09.204Z,9.82
2023-12-09T16:38:35.800Z,10.14
2023-12-09T16:41:02.747Z,8.56
2023-12-09T16:43:29.179Z,9.79
2023-12-09T16:45:56.437Z,9.42
2023-12-09T16:48:23.364Z,9.76
2023-12-09T16:50:49.900Z,9.62
2023-12-09T16:53:18.966Z,9.66
2023-12-09T16:55:45.883Z,9.66
2023-12-09T16:58:12.960Z,8.89
2023-12-09T17:00:39.575Z,9.91
2023-12-09T17:03:06.140Z,9.80
2023-12-09T17:05:32.877Z,10.80
2023-12-09T17:07:59.440Z,9.69
2023-12-09T17:10:25.905Z,9.19
2023-12-09T17:12:53.473Z,10.23
2023-12-09T17:15:20.325Z,9.75
2023-12-09T17:17:50.061Z,10.26
2023-12-09T17:20:17.104Z,10.12
2023-12-09T17:22:49.351Z,10.16
2023-12-09T17:25:17.852Z,9.59
2023-12-09T17:27:44.760Z,9.28
2023-12-09T17:33:57.499Z,10.54
2023-12-09T17:36:28.938Z,9.64
2023-12-09T17:38:56.018Z,10.29
2023-12-09T17:41:23.040Z,10.33
2023-12-09T17:43:49.970Z,10.51
2023-12-09T17:46:17.488Z,10.81
2023-12-09T17:48:46.234Z,10.40
2023-12-09T17:51:12.818Z,9.80
2023-12-09T17:53:39.307Z,10.06
2023-12-09T17:56:08.458Z,10.60
2023-12-09T17:58:34.969Z,11.21
2023-12-09T18:01:01.712Z,10.67
2023-12-09T18:03:28.316Z,11.36
2023-12-09T18:05:55.640Z,9.59
2023-12-09T18:08:31.180Z,11.51
2023-12-09T18:13:52.310Z,11.73
2023-12-09T18:20:06.204Z,11.80
2023-12-09T18:22:41.245Z,11.75
2023-12-09T18:25:25.806Z,11.75
2023-12-09T18:27:57.246Z,11.78
2023-12-09T18:30:29.415Z,11.93
2023-12-09T18:32:56.953Z,11.64
2023-12-09T18:35:23.513Z,11.75
2023-12-09T18:37:50.419Z,12.03
2023-12-09T18:40:17.126Z,12.09
2023-12-09T18:42:43.850Z,11.82
2023-12-09T18:45:10.399Z,12.14
2023-12-09T18:47:37.338Z,11.87
2023-12-09T18:52:31.633Z,11.49
2023-12-09T18:54:58.146Z,11.93
2023-12-09T18:57:24.918Z,12.03
2023-12-09T18:59:51.684Z,12.44
2023-12-09T19:02:19.543Z,12.65
2023-12-09T19:04:46.239Z,12.55
2023-12-09T19:07:13.502Z,11.78
2023-12-09T19:09:40.398Z,11.82
2023-12-09T19:12:07.404Z,12.36
2023-12-09T19:14:33.879Z,12.60
2023-12-09T19:17:01.142Z,11.82
2023-12-09T19:19:34.167Z,12.88
2023-12-09T19:22:01.131Z,12.62
2023-12-09T19:24:27.863Z,13.07
2023-12-09T19:26:54.355Z,13.00
2023-12-09T19:29:20.986Z,12.75
2023-12-09T19:31:47.727Z,12.88
2023-12-09T19:34:14.302Z,13.03
2023-12-09T19:36:46.085Z,12.95
2023-12-09T19:39:13.294Z,13.23
2023-12-09T19:41:39.802Z,13.26
2023-12-09T19:44:06.372Z,13.24
2023-12-09T19:46:33.024Z,13.35
2023-12-09T19:48:59.572Z,12.26
2023-12-09T19:51:26.276Z,11.96
2023-12-09T19:53:52.844Z,12.78
2023-12-09T19:56:19.360Z,12.03
2023-12-09T19:58:46.209Z,12.71
2023-12-09T20:01:12.737Z,12.59
2023-12-09T20:03:39.560Z,12.59
2023-12-09T20:06:07.101Z,13.13
2023-12-09T20:08:33.751Z,12.51
2023-12-09T20:11:00.776Z,12.84
2023-12-09T20:13:27.376Z,12.82
2023-12-09T20:15:54.162Z,12.64
2023-12-09T20:18:20.950Z,12.66
2023-12-09T20:20:47.800Z,12.41
2023-12-09T20:23:14.791Z,11.57
2023-12-09T20:25:41.278Z,12.19
2023-12-09T20:28:08.003Z,12.34
2023-12-09T20:30:39.188Z,12.25
2023-12-09T20:33:07.575Z,12.48
2023-12-09T20:35:34.438Z,11.60
2023-12-09T20:38:02.648Z,12.28
2023-12-09T20:40:29.300Z,11.39
2023-12-09T20:42:56.072Z,12.20
2023-12-09T20:45:23.102Z,12.27
2023-12-09T20:47:49.689Z,12.42
2023-12-09T20:50:16.565Z,12.29
2023-12-09T20:52:43.009Z,12.60
2023-12-09T20:55:09.825Z,11.57
2023-12-09T20:57:36.447Z,12.40
2023-12-09T21:00:03.795Z,11.76
2023-12-09T21:02:30.794Z,12.23
2023-12-09T21:04:58.148Z,12.20
2023-12-09T21:07:24.706Z,12.31
2023-12-09T21:09:51.461Z,12.21
2023-12-09T21:12:18.129Z,12.35
2023-12-09T21:14:44.695Z,11.90
2023-12-09T21:17:11.094Z,12.35
2023-12-09T21:19:38.478Z,11.78
2023-12-09T21:22:05.318Z,12.36
2023-12-09T21:24:32.337Z,12.16
2023-12-09T21:26:59.053Z,12.41
2023-12-09T21:29:25.768Z,11.99
2023-12-09T21:31:52.404Z,12.07
2023-12-09T21:34:19.228Z,12.31
2023-12-09T21:36:46.338Z,11.77
2023-12-09T21:39:13.133Z,11.96
2023-12-09T21:41:39.842Z,11.82
2023-12-09T21:44:06.491Z,11.86
2023-12-09T21:46:32.945Z,11.88
2023-12-09T21:48:59.915Z,11.86
2023-12-09T21:51:26.690Z,11.15
2023-12-09T21:53:53.137Z,11.56
2023-12-09T21:56:22.173Z,12.23
2023-12-09T21:58:50.128Z,12.33
2023-12-09T22:01:20.497Z,12.07
2023-12-09T22:03:47.797Z,12.23
2023-12-09T22:06:14.617Z,11.78
2023-12-09T22:08:42.593Z,11.96
2023-12-09T22:11:12.978Z,11.57
2023-12-09T22:13:40.378Z,12.26
2023-12-09T22:16:20.905Z,11.32
2023-12-09T22:18:48.926Z,12.05
2023-12-09T22:21:15.829Z,12.10
2023-12-09T22:23:42.480Z,12.17
2023-12-09T22:26:09.152Z,11.51
2023-12-09T22:28:39.839Z,12.12
2023-12-09T22:31:09.132Z,10.93
2023-12-09T22:33:37.309Z,12.17
2023-12-09T22:36:04.024Z,12.07
2023-12-09T22:38:30.398Z,12.03
2023-12-09T22:40:57.010Z,12.34
2023-12-09T22:43:23.459Z,12.24
2023-12-09T22:45:51.470Z,10.75
2023-12-09T22:48:18.219Z,11.95
2023-12-09T22:50:44.749Z,11.94
2023-12-09T22:53:11.150Z,10.63
2023-12-09T22:55:37.633Z,12.24
2023-12-09T22:58:04.083Z,12.18
2023-12-09T23:00:34.334Z,11.73
2023-12-09T23:03:04.041Z,11.84
2023-12-09T23:05:30.627Z,12.14
2023-12-09T23:07:57.207Z,11.74
2023-12-09T23:10:23.806Z,11.24
2023-12-09T23:12:50.352Z,11.99
2023-12-09T23:15:17.335Z,12.27
2023-12-09T23:17:43.816Z,12.09
2023-12-09T23:20:10.590Z,11.97
2023-12-09T23:22:37.070Z,12.00
2023-12-09T23:25:03.857Z,11.36
2023-12-09T23:27:30.330Z,12.08
2023-12-09T23:29:56.776Z,12.31
2023-12-09T23:32:23.441Z,12.36
2023-12-09T23:34:49.980Z,11.91
2023-12-09T23:37:16.453Z,10.27
2023-12-09T23:39:42.909Z,12.02
2023-12-09T23:42:09.340Z,11.04
2023-12-09T23:44:35.760Z,12.05
2023-12-09T23:47:02.289Z,12.12
2023-12-09T23:49:28.767Z,11.73
2023-12-09T23:51:55.294Z,12.08
2023-12-09T23:54:21.784Z,12.01
2023-12-09T23:56:48.154Z,12.47
2023-12-09T23:59:15.035Z,12.34
